ASA67 PAKT-PASI
Flight info
| Callsign | ASA67 |
|---|---|
| Flight time | 0h 37m |
| Altitude | 28000 |
| Route | SKOWL2 DOOZI BKA |
| Aircraft | B737/M-SDE2E3FGHIRWXY/LB1 |
Departure
| Time | 2026-04-14 18:46 |
|---|---|
| Airport | Ketchikan International Airport (PAKT) |
Arrival
| Time | 2026-04-14 19:24 |
|---|---|
| Airport | Sitka Rocky Gutierrez Airport (PASI) |
| Time | Latitude | Longitude | Altitude | Speed | Heading |
|---|---|---|---|---|---|
| 2026-04-14 18:28 | 55.35663 | -131.71029 | 41 ft | 0 kts | 45° |
| 2026-04-14 18:37 | 55.35663 | -131.71030 | 41 ft | 2 kts | 45° |
| 2026-04-14 18:37 | 55.35645 | -131.71061 | 38 ft | 4 kts | 47° |
| 2026-04-14 18:37 | 55.35628 | -131.71097 | 41 ft | 4 kts | 55° |
| 2026-04-14 18:37 | 55.35616 | -131.71138 | 41 ft | 4 kts | 84° |
| 2026-04-14 18:38 | 55.35618 | -131.71166 | 41 ft | 0 kts | 136° |
| 2026-04-14 18:41 | 55.35616 | -131.71162 | 41 ft | 2 kts | 136° |
| 2026-04-14 18:41 | 55.35601 | -131.71137 | 39 ft | 5 kts | 136° |
| 2026-04-14 18:41 | 55.35570 | -131.71087 | 41 ft | 7 kts | 136° |
| 2026-04-14 18:42 | 55.35533 | -131.71024 | 40 ft | 8 kts | 135° |
| 2026-04-14 18:42 | 55.35489 | -131.70944 | 39 ft | 11 kts | 134° |
| 2026-04-14 18:42 | 55.35423 | -131.70832 | 41 ft | 15 kts | 135° |
| 2026-04-14 18:42 | 55.35352 | -131.70710 | 49 ft | 14 kts | 135° |
| 2026-04-14 18:43 | 55.35283 | -131.70595 | 58 ft | 13 kts | 140° |
| 2026-04-14 18:43 | 55.35214 | -131.70488 | 82 ft | 13 kts | 137° |
| 2026-04-14 18:43 | 55.35150 | -131.70381 | 90 ft | 13 kts | 136° |
| 2026-04-14 18:43 | 55.35086 | -131.70279 | 97 ft | 12 kts | 137° |
| 2026-04-14 18:44 | 55.35022 | -131.70178 | 99 ft | 13 kts | 137° |
| 2026-04-14 18:44 | 55.34951 | -131.70064 | 99 ft | 14 kts | 140° |
| 2026-04-14 18:44 | 55.34867 | -131.70059 | 100 ft | 13 kts | 226° |
| 2026-04-14 18:44 | 55.34784 | -131.70060 | 98 ft | 13 kts | 149° |
| 2026-04-14 18:45 | 55.34717 | -131.69960 | 98 ft | 13 kts | 137° |
| 2026-04-14 18:45 | 55.34687 | -131.69895 | 97 ft | 1 kts | 77° |
| 2026-04-14 18:45 | 55.34697 | -131.69900 | 99 ft | 2 kts | 328° |
| 2026-04-14 18:45 | 55.34720 | -131.69940 | 98 ft | 12 kts | 314° |
| 2026-04-14 18:46 | 55.34829 | -131.70127 | 100 ft | 38 kts | 314° |
| 2026-04-14 18:46 | 55.35245 | -131.70842 | 98 ft | 126 kts | 316° |
| 2026-04-14 18:46 | 55.36004 | -131.72175 | 445 ft | 171 kts | 316° |
| 2026-04-14 18:46 | 55.36856 | -131.73630 | 1680 ft | 170 kts | 315° |
| 2026-04-14 18:47 | 55.37674 | -131.75156 | 2749 ft | 178 kts | 311° |
| 2026-04-14 18:47 | 55.38587 | -131.76919 | 3265 ft | 212 kts | 311° |
| 2026-04-14 18:47 | 55.39657 | -131.78987 | 3732 ft | 245 kts | 311° |
| 2026-04-14 18:47 | 55.40852 | -131.81301 | 4600 ft | 260 kts | 311° |
| 2026-04-14 18:48 | 55.42067 | -131.83653 | 5875 ft | 260 kts | 311° |
| 2026-04-14 18:48 | 55.43294 | -131.86031 | 7029 ft | 264 kts | 311° |
| 2026-04-14 18:48 | 55.44539 | -131.88446 | 8142 ft | 268 kts | 311° |
| 2026-04-14 18:48 | 55.45804 | -131.90903 | 9254 ft | 273 kts | 311° |
| 2026-04-14 18:49 | 55.47090 | -131.93404 | 10264 ft | 278 kts | 311° |
| 2026-04-14 18:49 | 55.48438 | -131.96029 | 10786 ft | 303 kts | 311° |
| 2026-04-14 18:49 | 55.49916 | -131.98909 | 11188 ft | 327 kts | 311° |
| 2026-04-14 18:49 | 55.51458 | -132.01919 | 12096 ft | 334 kts | 311° |
| 2026-04-14 18:50 | 55.53026 | -132.04966 | 13163 ft | 337 kts | 312° |
| 2026-04-14 18:50 | 55.54770 | -132.07770 | 14080 ft | 343 kts | 324° |
| 2026-04-14 18:50 | 55.56779 | -132.10088 | 14996 ft | 347 kts | 327° |
| 2026-04-14 18:50 | 55.58820 | -132.12338 | 15887 ft | 352 kts | 327° |
| 2026-04-14 18:51 | 55.60895 | -132.14693 | 16795 ft | 357 kts | 326° |
| 2026-04-14 18:51 | 55.62966 | -132.17184 | 17659 ft | 363 kts | 320° |
| 2026-04-14 18:51 | 55.64626 | -132.20558 | 18471 ft | 366 kts | 304° |
| 2026-04-14 18:51 | 55.66064 | -132.24302 | 19295 ft | 370 kts | 303° |
| 2026-04-14 18:52 | 55.67510 | -132.28115 | 20013 ft | 376 kts | 303° |
| 2026-04-14 18:52 | 55.68977 | -132.31983 | 20769 ft | 381 kts | 303° |
| 2026-04-14 18:52 | 55.70467 | -132.35900 | 21523 ft | 386 kts | 303° |
| 2026-04-14 18:52 | 55.71982 | -132.39871 | 22239 ft | 391 kts | 303° |
| 2026-04-14 18:53 | 55.73520 | -132.43888 | 22951 ft | 396 kts | 303° |
| 2026-04-14 18:53 | 55.75079 | -132.47958 | 23558 ft | 401 kts | 303° |
| 2026-04-14 18:53 | 55.76655 | -132.52069 | 24141 ft | 405 kts | 303° |
| 2026-04-14 18:53 | 55.78246 | -132.56224 | 24750 ft | 408 kts | 303° |
| 2026-04-14 18:54 | 55.79849 | -132.60413 | 25337 ft | 411 kts | 304° |
| 2026-04-14 18:54 | 55.81460 | -132.64632 | 25898 ft | 414 kts | 304° |
| 2026-04-14 18:54 | 55.83077 | -132.68871 | 26616 ft | 413 kts | 304° |
| 2026-04-14 18:54 | 55.84663 | -132.73038 | 27351 ft | 412 kts | 304° |
| 2026-04-14 18:55 | 55.86273 | -132.77276 | 27673 ft | 413 kts | 304° |
| 2026-04-14 18:55 | 55.87884 | -132.81521 | 27668 ft | 414 kts | 304° |
| 2026-04-14 18:55 | 55.89483 | -132.85745 | 27681 ft | 411 kts | 304° |
| 2026-04-14 18:55 | 55.91080 | -132.89972 | 27696 ft | 411 kts | 304° |
| 2026-04-14 18:56 | 55.92679 | -132.94207 | 27686 ft | 412 kts | 304° |
| 2026-04-14 18:56 | 55.94278 | -132.98453 | 27690 ft | 413 kts | 304° |
| 2026-04-14 18:56 | 55.95876 | -133.02705 | 27684 ft | 413 kts | 304° |
| 2026-04-14 18:56 | 55.97475 | -133.06964 | 27692 ft | 413 kts | 304° |
| 2026-04-14 18:57 | 55.99071 | -133.11224 | 27695 ft | 413 kts | 304° |
| 2026-04-14 18:57 | 56.00664 | -133.15483 | 27688 ft | 412 kts | 304° |
| 2026-04-14 18:57 | 56.02257 | -133.19750 | 27687 ft | 412 kts | 304° |
| 2026-04-14 18:57 | 56.03847 | -133.24014 | 27684 ft | 411 kts | 304° |
| 2026-04-14 18:58 | 56.05431 | -133.28273 | 27681 ft | 411 kts | 304° |
| 2026-04-14 18:58 | 56.07011 | -133.32527 | 27681 ft | 411 kts | 304° |
| 2026-04-14 18:58 | 56.08587 | -133.36776 | 27682 ft | 410 kts | 304° |
| 2026-04-14 18:58 | 56.10164 | -133.41037 | 27683 ft | 410 kts | 304° |
| 2026-04-14 18:59 | 56.11740 | -133.45301 | 27686 ft | 410 kts | 304° |
| 2026-04-14 18:59 | 56.13311 | -133.49562 | 27688 ft | 410 kts | 304° |
| 2026-04-14 18:59 | 56.14884 | -133.53834 | 27678 ft | 411 kts | 304° |
| 2026-04-14 18:59 | 56.16461 | -133.58124 | 27682 ft | 411 kts | 304° |
| 2026-04-14 19:00 | 56.18032 | -133.62405 | 27639 ft | 409 kts | 304° |
| 2026-04-14 19:00 | 56.19588 | -133.66653 | 27196 ft | 405 kts | 304° |
| 2026-04-14 19:00 | 56.21125 | -133.70859 | 26664 ft | 401 kts | 304° |
| 2026-04-14 19:00 | 56.22641 | -133.75012 | 26144 ft | 395 kts | 304° |
| 2026-04-14 19:01 | 56.24120 | -133.79072 | 25610 ft | 391 kts | 304° |
| 2026-04-14 19:01 | 56.25600 | -133.83141 | 25084 ft | 387 kts | 304° |
| 2026-04-14 19:01 | 56.27066 | -133.87179 | 24558 ft | 383 kts | 304° |
| 2026-04-14 19:01 | 56.28518 | -133.91184 | 24046 ft | 380 kts | 304° |
| 2026-04-14 19:02 | 56.29956 | -133.95155 | 23532 ft | 377 kts | 303° |
| 2026-04-14 19:02 | 56.31385 | -133.99111 | 22936 ft | 375 kts | 304° |
| 2026-04-14 19:02 | 56.32799 | -134.03031 | 22353 ft | 372 kts | 304° |
| 2026-04-14 19:02 | 56.34196 | -134.06910 | 21829 ft | 367 kts | 304° |
| 2026-04-14 19:03 | 56.35576 | -134.10746 | 21317 ft | 363 kts | 304° |
| 2026-04-14 19:03 | 56.36942 | -134.14552 | 20803 ft | 359 kts | 304° |
| 2026-04-14 19:03 | 56.38293 | -134.18320 | 20290 ft | 356 kts | 304° |
| 2026-04-14 19:03 | 56.39635 | -134.22068 | 19781 ft | 353 kts | 304° |
| 2026-04-14 19:04 | 56.40959 | -134.25772 | 19277 ft | 350 kts | 304° |
| 2026-04-14 19:04 | 56.42258 | -134.29412 | 18788 ft | 347 kts | 304° |
| 2026-04-14 19:04 | 56.43558 | -134.33062 | 18303 ft | 344 kts | 304° |
| 2026-04-14 19:04 | 56.44849 | -134.36691 | 17914 ft | 339 kts | 304° |
| 2026-04-14 19:05 | 56.46105 | -134.40227 | 17510 ft | 332 kts | 304° |
| 2026-04-14 19:05 | 56.47347 | -134.43727 | 17054 ft | 328 kts | 304° |
| 2026-04-14 19:05 | 56.48572 | -134.47186 | 16583 ft | 325 kts | 304° |
| 2026-04-14 19:05 | 56.49787 | -134.50621 | 16106 ft | 323 kts | 304° |
| 2026-04-14 19:06 | 56.50991 | -134.54027 | 15630 ft | 320 kts | 304° |
| 2026-04-14 19:06 | 56.52187 | -134.57417 | 15166 ft | 318 kts | 304° |
| 2026-04-14 19:06 | 56.53374 | -134.60787 | 14691 ft | 316 kts | 304° |
| 2026-04-14 19:06 | 56.54552 | -134.64135 | 14220 ft | 314 kts | 304° |
| 2026-04-14 19:07 | 56.55725 | -134.67475 | 13757 ft | 313 kts | 304° |
| 2026-04-14 19:07 | 56.56889 | -134.70792 | 13263 ft | 311 kts | 304° |
| 2026-04-14 19:07 | 56.58048 | -134.74102 | 12786 ft | 309 kts | 304° |
| 2026-04-14 19:07 | 56.59181 | -134.77343 | 12331 ft | 306 kts | 304° |
| 2026-04-14 19:08 | 56.60322 | -134.80606 | 11860 ft | 304 kts | 304° |
| 2026-04-14 19:08 | 56.61450 | -134.83840 | 11373 ft | 303 kts | 304° |
| 2026-04-14 19:08 | 56.62573 | -134.87064 | 10933 ft | 301 kts | 304° |
| 2026-04-14 19:08 | 56.63685 | -134.90259 | 10460 ft | 300 kts | 304° |
| 2026-04-14 19:09 | 56.64788 | -134.93436 | 10235 ft | 291 kts | 305° |
| 2026-04-14 19:09 | 56.65842 | -134.96479 | 10113 ft | 279 kts | 305° |
| 2026-04-14 19:09 | 56.66856 | -134.99407 | 9986 ft | 268 kts | 305° |
| 2026-04-14 19:09 | 56.67841 | -135.02252 | 9696 ft | 264 kts | 305° |
| 2026-04-14 19:10 | 56.68816 | -135.05069 | 9354 ft | 263 kts | 305° |
| 2026-04-14 19:10 | 56.69783 | -135.07864 | 8999 ft | 261 kts | 305° |
| 2026-04-14 19:10 | 56.70746 | -135.10656 | 8653 ft | 259 kts | 305° |
| 2026-04-14 19:10 | 56.71699 | -135.13421 | 8331 ft | 257 kts | 305° |
| 2026-04-14 19:11 | 56.72645 | -135.16167 | 7967 ft | 255 kts | 305° |
| 2026-04-14 19:11 | 56.73581 | -135.18889 | 7673 ft | 252 kts | 304° |
| 2026-04-14 19:11 | 56.74196 | -135.20680 | 7446 ft | 251 kts | 304° |
| 2026-04-14 19:11 | 56.75120 | -135.23372 | 7109 ft | 250 kts | 304° |
| 2026-04-14 19:12 | 56.76037 | -135.26045 | 6794 ft | 249 kts | 304° |
| 2026-04-14 19:12 | 56.76952 | -135.28719 | 6472 ft | 247 kts | 304° |
| 2026-04-14 19:12 | 56.78769 | -135.34033 | 5811 ft | 246 kts | 304° |
| 2026-04-14 19:13 | 56.79671 | -135.36674 | 5501 ft | 244 kts | 304° |
| 2026-04-14 19:13 | 56.80563 | -135.39294 | 5200 ft | 241 kts | 304° |
| 2026-04-14 19:13 | 56.81447 | -135.41889 | 4883 ft | 240 kts | 304° |
| 2026-04-14 19:13 | 56.82321 | -135.44457 | 4634 ft | 235 kts | 304° |
| 2026-04-14 19:14 | 56.83163 | -135.46934 | 4532 ft | 225 kts | 304° |
| 2026-04-14 19:14 | 56.83971 | -135.49318 | 4420 ft | 215 kts | 304° |
| 2026-04-14 19:14 | 56.84741 | -135.51592 | 4321 ft | 205 kts | 305° |
| 2026-04-14 19:14 | 56.85474 | -135.53757 | 4244 ft | 199 kts | 304° |
| 2026-04-14 19:15 | 56.86163 | -135.55925 | 4235 ft | 203 kts | 292° |
| 2026-04-14 19:15 | 56.86406 | -135.58518 | 4257 ft | 210 kts | 277° |
| 2026-04-14 19:15 | 56.86548 | -135.61211 | 4254 ft | 214 kts | 274° |
| 2026-04-14 19:15 | 56.86213 | -135.63840 | 4225 ft | 217 kts | 237° |
| 2026-04-14 19:16 | 56.85058 | -135.65596 | 4255 ft | 219 kts | 207° |
| 2026-04-14 19:16 | 56.83682 | -135.66841 | 4238 ft | 222 kts | 206° |
| 2026-04-14 19:16 | 56.82290 | -135.68080 | 4249 ft | 223 kts | 206° |
| 2026-04-14 19:16 | 56.80799 | -135.68800 | 4217 ft | 224 kts | 173° |
| 2026-04-14 19:17 | 56.79410 | -135.67748 | 4240 ft | 217 kts | 133° |
| 2026-04-14 19:17 | 56.78684 | -135.65465 | 4153 ft | 205 kts | 97° |
| 2026-04-14 19:17 | 56.78806 | -135.62956 | 3760 ft | 199 kts | 64° |
| 2026-04-14 19:17 | 56.79632 | -135.60972 | 3308 ft | 199 kts | 36° |
| 2026-04-14 19:18 | 56.80836 | -135.59748 | 3032 ft | 198 kts | 26° |
| 2026-04-14 19:18 | 56.82077 | -135.58627 | 3000 ft | 199 kts | 26° |
| 2026-04-14 19:18 | 56.83282 | -135.57538 | 2973 ft | 187 kts | 26° |
| 2026-04-14 19:18 | 56.84412 | -135.56514 | 2988 ft | 177 kts | 25° |
| 2026-04-14 19:19 | 56.85527 | -135.55504 | 3005 ft | 180 kts | 26° |
| 2026-04-14 19:19 | 56.86635 | -135.54430 | 2997 ft | 180 kts | 28° |
| 2026-04-14 19:19 | 56.87719 | -135.53315 | 2978 ft | 177 kts | 28° |
| 2026-04-14 19:19 | 56.88785 | -135.52220 | 2993 ft | 175 kts | 28° |
| 2026-04-14 19:20 | 56.89833 | -135.51149 | 2871 ft | 174 kts | 28° |
| 2026-04-14 19:20 | 56.90894 | -135.50070 | 2551 ft | 173 kts | 28° |
| 2026-04-14 19:20 | 56.91949 | -135.48998 | 2514 ft | 175 kts | 28° |
| 2026-04-14 19:20 | 56.93033 | -135.47898 | 2519 ft | 180 kts | 28° |
| 2026-04-14 19:21 | 56.94120 | -135.46762 | 2541 ft | 179 kts | 33° |
| 2026-04-14 19:21 | 56.95063 | -135.45253 | 2692 ft | 183 kts | 45° |
| 2026-04-14 19:21 | 56.95928 | -135.43530 | 2551 ft | 185 kts | 48° |
| 2026-04-14 19:21 | 56.96776 | -135.41741 | 2350 ft | 186 kts | 47° |
| 2026-04-14 19:22 | 56.97675 | -135.39928 | 2197 ft | 193 kts | 47° |
| 2026-04-14 19:22 | 56.98537 | -135.38063 | 2104 ft | 192 kts | 52° |
| 2026-04-14 19:22 | 56.99307 | -135.36100 | 1936 ft | 190 kts | 54° |
| 2026-04-14 19:22 | 57.00053 | -135.34072 | 1607 ft | 189 kts | 56° |
| 2026-04-14 19:23 | 57.00764 | -135.32113 | 1292 ft | 178 kts | 55° |
| 2026-04-14 19:23 | 57.01636 | -135.30697 | 938 ft | 167 kts | 18° |
| 2026-04-14 19:23 | 57.02694 | -135.30822 | 838 ft | 149 kts | 330° |
| 2026-04-14 19:23 | 57.03256 | -135.32248 | 568 ft | 138 kts | 289° |
| 2026-04-14 19:24 | 57.03546 | -135.33862 | 234 ft | 129 kts | 298° |
| 2026-04-14 19:24 | 57.04084 | -135.35046 | 49 ft | 114 kts | 318° |
| 2026-04-14 19:24 | 57.04541 | -135.35863 | 35 ft | 49 kts | 315° |
| 2026-04-14 19:24 | 57.04625 | -135.36015 | 37 ft | 17 kts | 316° |
| 2026-04-14 19:25 | 57.04733 | -135.36202 | 36 ft | 21 kts | 317° |
| 2026-04-14 19:25 | 57.04843 | -135.36301 | 33 ft | 17 kts | 357° |
| 2026-04-14 19:25 | 57.04959 | -135.36342 | 34 ft | 17 kts | 332° |
| 2026-04-14 19:25 | 57.05044 | -135.36480 | 34 ft | 16 kts | 314° |
| 2026-04-14 19:26 | 57.05123 | -135.36621 | 34 ft | 15 kts | 315° |
| 2026-04-14 19:26 | 57.05183 | -135.36728 | 34 ft | 8 kts | 317° |
| 2026-04-14 19:26 | 57.05213 | -135.36733 | 34 ft | 4 kts | 33° |
| 2026-04-14 19:26 | 57.05224 | -135.36685 | 34 ft | 4 kts | 73° |
| 2026-04-14 19:27 | 57.05231 | -135.36635 | 34 ft | 4 kts | 76° |
| 2026-04-14 19:27 | 57.05235 | -135.36604 | 34 ft | 1 kts | 75° |